Home > Products > Valid Products > TAF

000
FTUS45 KTWC 282338
TAFDUG
TAF
KDUG 282338Z 2900/2924 15006KT P6SM SCT060 SCT120 BKN200
     FM290400 03006KT P6SM SCT120 BKN200
     FM290800 VRB04KT P6SM FEW140
     FM291900 15006KT P6SM SCT070=



000
FTUS45 KTWC 282338
TAFTUS
TAF
KTUS 282338Z 2900/2924 32004KT P6SM SCT080 SCT250
     FM290200 25005KT P6SM FEW100
     FM290600 14007KT P6SM SKC
     FM292000 32005KT P6SM SCT090=



000
FTUS45 KTWC 282338
TAFOLS
TAF
KOLS 282338Z 2900/2924 26005KT P6SM SCT070 SCT120 BKN200
     FM290300 05005KT P6SM SCT120 BKN200
     FM290600 VRB03KT P6SM FEW140
     FM291900 20005KT P6SM SCT080=



000
FTUS45 KTWC 281735
TAFOLS
TAF
KOLS 281735Z 2818/2918 28006KT P6SM FEW090 SCT300
     FM282100 29008KT P6SM VCTS FEW070CB SCT300
     FM290100 36006KT P6SM VCSH SCT070 BKN150
     FM290300 05005KT P6SM SCT100 SCT300
     FM290900 VRB03KT P6SM SCT300=



000
FTUS45 KTWC 281735
TAFTUS
TAF
KTUS 281735Z 2818/2918 VRB05KT P6SM FEW080 SCT350
     FM282200 32007KT P6SM SCT080 SCT350
     FM290200 35006KT P6SM SCT090 BKN300
     FM290600 15006KT P6SM FEW120 SCT350=



000
FTUS45 KTWC 281735
TAFDUG
TAF
KDUG 281735Z 2818/2918 31006KT P6SM FEW120 SCT300
     FM282200 27008KT P6SM VCTS SCT070CB SCT160 SCT300
     FM290100 30007KT P6SM VCSH SCT080 BKN300
     FM290400 03006KT P6SM SCT100 SCT300
     FM290800 VRB04KT P6SM SCT300=



000
FTUS45 KTWC 281735
TAFOLS
TAF
KOLS 281735Z 2818/2918 28006KT P6SM FEW090 SCT300
     FM282100 29008KT P6SM VCTS FEW070CB SCT300
     FM290100 36006KT P6SM VCSH SCT070 BKN150
     FM290300 05005KT P6SM SCT100 SCT300
     FM290900 VRB03KT P6SM SCT300=



000
FTUS45 KTWC 281138 CCA
TAFOLS
TAF COR
KOLS 281138Z 2812/2912 VRB04KT P6SM SCT090 BKN150
     FM282100 29008KT P6SM VCTS FEW070CB SCT200
     FM290100 36006KT P6SM VCSH SCT070 BKN150
     FM290300 VRB04KT P6SM SCT100 SCT200=



000
FTUS45 KTWC 281138 CCA
TAFOLS
TAF COR
KOLS 281138Z 2812/2912 VRB04KT P6SM SCT090 BKN150
     FM282100 29008KT P6SM VCTS FEW070CB SCT200
     FM290100 36006KT P6SM VCSH SCT070 BKN150
     FM290300 VRB04KT P6SM SCT100 SCT200=



000
FTUS45 KTWC 281138 CCA
TAFOLS
TAF COR
KOLS 281138Z 2812/2912 VRB04KT P6SM SCT090 BKN150
     FM282100 29008KT P6SM VCTS FEW070CB SCT200
     FM290100 36006KT P6SM VCSH SCT070 BKN150
     FM290300 VRB04KT P6SM SCT100 SCT200=



000
FTUS45 KTWC 281138 CCA
TAFOLS
TAF COR
KOLS 281138Z 2812/2912 VRB04KT P6SM SCT090 BKN150
     FM282100 29008KT P6SM VCTS FEW070CB SCT200
     FM290100 36006KT P6SM VCSH SCT070 BKN150
     FM290300 VRB04KT P6SM SCT100 SCT200=



000
FTUS45 KTWC 281136
TAFOLS
TAF
KOLS 281136Z 2812/2912 VRB06KT P6SM SCT090 BKN150
     FM282100 29008KT P6SM VCTS FEW070CB SCT200
     FM290100 36006KT P6SM VCSH SCT070 BKN150
     FM290300 VRB04KT P6SM SCT100 SCT200=



000
FTUS45 KTWC 281136
TAFOLS
TAF
KOLS 281136Z 2812/2912 VRB06KT P6SM SCT090 BKN150
     FM282100 29008KT P6SM VCTS FEW070CB SCT200
     FM290100 36006KT P6SM VCSH SCT070 BKN150
     FM290300 VRB04KT P6SM SCT100 SCT200=



000
FTUS45 KTWC 281136
TAFOLS
TAF
KOLS 281136Z 2812/2912 VRB06KT P6SM SCT090 BKN150
     FM282100 29008KT P6SM VCTS FEW070CB SCT200
     FM290100 36006KT P6SM VCSH SCT070 BKN150
     FM290300 VRB04KT P6SM SCT100 SCT200=



000
FTUS45 KTWC 281136
TAFDUG
TAF
KDUG 281136Z 2812/2912 VRB05KT P6SM FEW120 BKN200
     FM282100 27008KT P6SM VCTS SCT070CB SCT160
     FM290100 30007KT P6SM VCSH SCT080 BKN200
     FM290400 03006KT P6SM SCT100 SCT200=



000
FTUS45 KTWC 281136
TAFTUS
TAF
KTUS 281136Z 2812/2912 14007KT P6SM SCT090 SCT120 BKN200
     FM281700 VRB04KT P6SM FEW080 SCT250
     FM282200 32007KT P6SM SCT080 SCT250
     FM290200 35006KT P6SM SCT090 BKN250
     FM290600 15005KT P6SM FEW120 SCT250=



000
FTUS45 KTWC 281136
TAFTUS
TAF
KTUS 281136Z 2812/2912 14007KT P6SM SCT090 SCT120 BKN200
     FM281700 VRB04KT P6SM FEW080 SCT250
     FM282200 32007KT P6SM SCT080 SCT250
     FM290200 35006KT P6SM SCT090 BKN250
     FM290600 15005KT P6SM FEW120 SCT250=



000
FTUS45 KTWC 281136
TAFOLS
TAF
KOLS 281136Z 2812/2912 VRB06KT P6SM SCT090 BKN150
     FM282100 29008KT P6SM VCTS FEW070CB SCT200
     FM290100 36006KT P6SM VCSH SCT070 BKN150
     FM290300 VRB04KT P6SM SCT100 SCT200=



000
FTUS45 KTWC 281136
TAFDUG
TAF
KDUG 281136Z 2812/2912 VRB05KT P6SM FEW120 BKN200
     FM282100 27008KT P6SM VCTS SCT070CB SCT160
     FM290100 30007KT P6SM VCSH SCT080 BKN200
     FM290400 03006KT P6SM SCT100 SCT200=



000
FTUS45 KTWC 280539
TAFDUG
TAF
KDUG 280539Z 2806/2906 34013KT P6SM SCT120 BKN200
     FM280900 02008KT P6SM FEW120 BKN200
     FM282100 30008KT P6SM VCTS SCT070CB BKN160
     FM290200 28006KT P6SM VCSH SCT080 BKN200=



000
FTUS45 KTWC 280539
TAFOLS
TAF
KOLS 280539Z 2806/2906 02010G19KT P6SM VCTS BKN080CB BKN110
      TEMPO 2806/2807 VRB15G25KT P6SM TSRA BKN080CB OVC120
     FM280800 VRB06KT P6SM SCT090 BKN150
     FM282100 29008KT P6SM VCTS FEW070CB SCT200
     FM290100 VRB06KT P6SM SCT070 BKN150=



000
FTUS45 KTWC 280539
TAFOLS
TAF
KOLS 280539Z 2806/2906 02010G19KT P6SM VCTS BKN080CB BKN110
      TEMPO 2806/2807 VRB15G25KT P6SM TSRA BKN080CB OVC120
     FM280800 VRB06KT P6SM SCT090 BKN150
     FM282100 29008KT P6SM VCTS FEW070CB SCT200
     FM290100 VRB06KT P6SM SCT070 BKN150=



000
FTUS45 KTWC 280539
TAFDUG
TAF
KDUG 280539Z 2806/2906 34013KT P6SM SCT120 BKN200
     FM280900 02008KT P6SM FEW120 BKN200
     FM282100 30008KT P6SM VCTS SCT070CB BKN160
     FM290200 28006KT P6SM VCSH SCT080 BKN200=



000
FTUS45 KTWC 280539
TAFTUS
TAF
KTUS 280539Z 2806/2906 18010KT P6SM FEW050 SCT090 BKN120
     FM281000 14009KT P6SM SCT090 SCT120 BKN200
     FM281700 VRB04KT P6SM FEW080 SCT250
     FM282200 32007KT P6SM SCT080 BKN250
     FM290200 35006KT P6SM SCT090 SCT250=



000
FTUS45 KTWC 280539
TAFOLS
TAF
KOLS 280539Z 2806/2906 02010G19KT P6SM VCTS BKN080CB BKN110
      TEMPO 2806/2807 VRB15G25KT P6SM TSRA BKN080CB OVC120
     FM280800 VRB06KT P6SM SCT090 BKN150
     FM282100 29008KT P6SM VCTS FEW070CB SCT200
     FM290100 VRB06KT P6SM SCT070 BKN150=



000
FTUS45 KTWC 280539
TAFTUS
TAF
KTUS 280539Z 2806/2906 18010KT P6SM FEW050 SCT090 BKN120
     FM281000 14009KT P6SM SCT090 SCT120 BKN200
     FM281700 VRB04KT P6SM FEW080 SCT250
     FM282200 32007KT P6SM SCT080 BKN250
     FM290200 35006KT P6SM SCT090 SCT250=



000
FTUS45 KTWC 280442 AAA
TAFOLS
TAF AMD
KOLS 280442Z 2805/2824 03013G25KT P6SM VCTS BKN110CB OVC200
      TEMPO 2805/2807 VRB15G25KT P6SM TSRA BKN090CB OVC200
     FM280700 VRB02KT P6SM SCT130 BKN200
     FM282100 VRB06KT P6SM VCTS FEW070CB SCT140=



000
FTUS45 KTWC 280442 AAA
TAFOLS
TAF AMD
KOLS 280442Z 2805/2824 03013G25KT P6SM VCTS BKN110CB OVC200
      TEMPO 2805/2807 VRB15G25KT P6SM TSRA BKN090CB OVC200
     FM280700 VRB02KT P6SM SCT130 BKN200
     FM282100 VRB06KT P6SM VCTS FEW070CB SCT140=



000
FTUS45 KTWC 280302 AAB
TAFTUS
TAF AMD
KTUS 280302Z 2803/2824 08015G25KT P6SM VCTS SCT080CB SCT130 BKN200
      TEMPO 2803/2804 VRB15G30KT 6SM TSRA BKN090CB BKN200
     FM280400 12013KT P6SM SCT080 BKN120
     FM280600 14006KT P6SM SCT140 BKN250
     FM281700 VRB04KT P6SM FEW080 SCT250
     FM282200 33007KT P6SM SCT080 SCT250=



000
FTUS45 KTWC 280043 AAA
TAFTUS
TAF AMD
KTUS 280043Z 2801/2824 36006KT P6SM VCTS SCT080CB SCT130 BKN200
      TEMPO 2801/2803 VRB15G30KT 6SM TSRA BKN090CB BKN200
     FM280300 34010KT P6SM SCT080 BKN120
     FM280600 14006KT P6SM SCT140 BKN250
     FM281700 VRB04KT P6SM FEW080 SCT250
     FM282200 33007KT P6SM SCT080 SCT250=



000
FTUS45 KTWC 272335
TAFTUS
TAF
KTUS 272335Z 2800/2824 36006KT P6SM VCTS SCT080CB SCT130 BKN200
     FM280200 34010KT P6SM SCT080 BKN120
     FM280600 14006KT P6SM SCT140 BKN250
     FM281700 VRB04KT P6SM FEW080 SCT250
     FM282200 33007KT P6SM SCT080 SCT250=



000
FTUS45 KTWC 272335
TAFOLS
TAF
KOLS 272335Z 2800/2824 36006KT P6SM SCT070 SCT130 BKN250
     FM280300 VRB03KT P6SM SCT140 BKN250
     FM280700 VRB02KT P6SM SCT130 SCT250
     FM282100 VRB06KT P6SM VCTS FEW070CB SCT140=



000
FTUS45 KTWC 272335
TAFDUG
TAF
KDUG 272335Z 2800/2824 VRB06KT P6SM SCT060 BKN150 OVC200
     FM280200 VRB06KT P6SM SCT090 BKN200
     FM280900 VRB03KT P6SM SCT120 SCT250
     FM282100 30006KT P6SM VCTS SCT070CB BKN160=



000
FTUS45 KTWC 272335
TAFOLS
TAF
KOLS 272335Z 2800/2824 36006KT P6SM SCT070 SCT130 BKN250
     FM280300 VRB03KT P6SM SCT140 BKN250
     FM280700 VRB02KT P6SM SCT130 SCT250
     FM282100 VRB06KT P6SM VCTS FEW070CB SCT140=



000
FTUS45 KTWC 272335
TAFTUS
TAF
KTUS 272335Z 2800/2824 36006KT P6SM VCTS SCT080CB SCT130 BKN200
     FM280200 34010KT P6SM SCT080 BKN120
     FM280600 14006KT P6SM SCT140 BKN250
     FM281700 VRB04KT P6SM FEW080 SCT250
     FM282200 33007KT P6SM SCT080 SCT250=



000
FTUS45 KTWC 272335
TAFOLS
TAF
KOLS 272335Z 2800/2824 36006KT P6SM SCT070 SCT130 BKN250
     FM280300 VRB03KT P6SM SCT140 BKN250
     FM280700 VRB02KT P6SM SCT130 SCT250
     FM282100 VRB06KT P6SM VCTS FEW070CB SCT140=



000
FTUS45 KTWC 272335
TAFOLS
TAF
KOLS 272335Z 2800/2824 36006KT P6SM SCT070 SCT130 BKN250
     FM280300 VRB03KT P6SM SCT140 BKN250
     FM280700 VRB02KT P6SM SCT130 SCT250
     FM282100 VRB06KT P6SM VCTS FEW070CB SCT140=



000
FTUS45 KTWC 272335
TAFDUG
TAF
KDUG 272335Z 2800/2824 VRB06KT P6SM SCT060 BKN150 OVC200
     FM280200 VRB06KT P6SM SCT090 BKN200
     FM280900 VRB03KT P6SM SCT120 SCT250
     FM282100 30006KT P6SM VCTS SCT070CB BKN160=



000
FTUS45 KTWC 272032 AAA
TAFDUG
TAF AMD
KDUG 272032Z 2721/2818 03005KT P6SM VCTS SCT060CB BKN100 OVC180
      TEMPO 2721/2723 VRB20G35KT 3SM -TSRA SCT030 BKN060CB
     FM280200 03006KT P6SM VCSH BKN060 BKN100 OVC180
     FM280500 VRB03KT P6SM SCT120 BKN200=



000
FTUS45 KTWC 271739
TAFTUS
TAF
KTUS 271739Z 2718/2818 VRB03KT P6SM FEW100 SCT250
     FM272200 33006KT P6SM VCTS SCT080CB SCT120 BKN200
     FM280200 25007KT P6SM SCT080 BKN120
     FM280600 14006KT P6SM SCT140 BKN250=



000
FTUS45 KTWC 271739
TAFOLS
TAF
KOLS 271739Z 2718/2818 23005KT P6SM SCT120 BKN200
     FM272200 27008KT P6SM VCTS SCT070CB BKN110 OVC200
     FM280200 08005KT P6SM VCSH BKN070 BKN110 OVC200
     FM280500 VRB03KT P6SM SCT140 BKN200=



000
FTUS45 KTWC 271739
TAFOLS
TAF
KOLS 271739Z 2718/2818 23005KT P6SM SCT120 BKN200
     FM272200 27008KT P6SM VCTS SCT070CB BKN110 OVC200
     FM280200 08005KT P6SM VCSH BKN070 BKN110 OVC200
     FM280500 VRB03KT P6SM SCT140 BKN200=



000
FTUS45 KTWC 271739
TAFDUG
TAF
KDUG 271739Z 2718/2818 VRB03KT P6SM SCT120 BKN200
     FM272200 32005KT P6SM VCTS SCT060CB BKN100 OVC180
     FM280200 03006KT P6SM VCSH BKN060 BKN100 OVC180
     FM280500 VRB03KT P6SM SCT120 BKN200=



000
FTUS45 KTWC 271739
TAFOLS
TAF
KOLS 271739Z 2718/2818 23005KT P6SM SCT120 BKN200
     FM272200 27008KT P6SM VCTS SCT070CB BKN110 OVC200
     FM280200 08005KT P6SM VCSH BKN070 BKN110 OVC200
     FM280500 VRB03KT P6SM SCT140 BKN200=



000
FTUS45 KTWC 271739
TAFDUG
TAF
KDUG 271739Z 2718/2818 VRB03KT P6SM SCT120 BKN200
     FM272200 32005KT P6SM VCTS SCT060CB BKN100 OVC180
     FM280200 03006KT P6SM VCSH BKN060 BKN100 OVC180
     FM280500 VRB03KT P6SM SCT120 BKN200=



000
FTUS45 KTWC 271739
TAFOLS
TAF
KOLS 271739Z 2718/2818 23005KT P6SM SCT120 BKN200
     FM272200 27008KT P6SM VCTS SCT070CB BKN110 OVC200
     FM280200 08005KT P6SM VCSH BKN070 BKN110 OVC200
     FM280500 VRB03KT P6SM SCT140 BKN200=



000
FTUS45 KTWC 271739
TAFTUS
TAF
KTUS 271739Z 2718/2818 VRB03KT P6SM FEW100 SCT250
     FM272200 33006KT P6SM VCTS SCT080CB SCT120 BKN200
     FM280200 25007KT P6SM SCT080 BKN120
     FM280600 14006KT P6SM SCT140 BKN250=



000
FTUS45 KTWC 271130
TAFDUG
TAF
KDUG 271130Z 2712/2812 VRB05KT P6SM FEW120 BKN200
     FM272200 32005KT P6SM VCTS SCT080CB SCT150
     FM280100 36006KT P6SM VCSH SCT080 BKN150
     FM280500 VRB05KT P6SM SCT100 BKN200=



000
FTUS45 KTWC 271130
TAFDUG
TAF
KDUG 271130Z 2712/2812 VRB05KT P6SM FEW120 BKN200
     FM272200 32005KT P6SM VCTS SCT080CB SCT150
     FM280100 36006KT P6SM VCSH SCT080 BKN150
     FM280500 VRB05KT P6SM SCT100 BKN200=



000
FTUS45 KTWC 271130
TAFOLS
TAF
KOLS 271130Z 2712/2812 VRB04KT P6SM SCT200
     FM272100 33006KT P6SM VCTS SCT080CB SCT150
     FM280100 VRB06KT P6SM VCSH SCT080 BKN150
     FM280500 VRB05KT P6SM SCT100 SCT200=



000
FTUS45 KTWC 271130
TAFTUS
TAF
KTUS 271130Z 2712/2812 14008KT P6SM FEW150 SCT250
     FM271800 VRB05KT P6SM FEW100 SCT250
     FM272200 33006KT P6SM VCSH SCT090 SCT150
     FM280000 35007KT P6SM VCSH SCT080 BKN150
     FM280400 14006KT P6SM SCT120 SCT250=



000
FTUS45 KTWC 271130
TAFOLS
TAF
KOLS 271130Z 2712/2812 VRB04KT P6SM SCT200
     FM272100 33006KT P6SM VCTS SCT080CB SCT150
     FM280100 VRB06KT P6SM VCSH SCT080 BKN150
     FM280500 VRB05KT P6SM SCT100 SCT200=



000
FTUS45 KTWC 271130
TAFTUS
TAF
KTUS 271130Z 2712/2812 14008KT P6SM FEW150 SCT250
     FM271800 VRB05KT P6SM FEW100 SCT250
     FM272200 33006KT P6SM VCSH SCT090 SCT150
     FM280000 35007KT P6SM VCSH SCT080 BKN150
     FM280400 14006KT P6SM SCT120 SCT250=



000
FTUS45 KTWC 271130
TAFOLS
TAF
KOLS 271130Z 2712/2812 VRB04KT P6SM SCT200
     FM272100 33006KT P6SM VCTS SCT080CB SCT150
     FM280100 VRB06KT P6SM VCSH SCT080 BKN150
     FM280500 VRB05KT P6SM SCT100 SCT200=



000
FTUS45 KTWC 271130
TAFOLS
TAF
KOLS 271130Z 2712/2812 VRB04KT P6SM SCT200
     FM272100 33006KT P6SM VCTS SCT080CB SCT150
     FM280100 VRB06KT P6SM VCSH SCT080 BKN150
     FM280500 VRB05KT P6SM SCT100 SCT200=



000
FTUS45 KTWC 270537
TAFOLS
TAF
KOLS 270537Z 2706/2806 VRB05KT P6SM FEW120 BKN200
     FM271000 VRB04KT P6SM SCT200
     FM272100 33006KT P6SM VCTS SCT080CB SCT120 BKN200
     FM280100 VRB06KT P6SM VCSH SCT090 BKN180
     FM280500 VRB05KT P6SM SCT100 SCT200=



000
FTUS45 KTWC 270537
TAFDUG
TAF
KDUG 270537Z 2706/2806 08006KT P6SM SCT100 OVC180
     FM271000 VRB05KT P6SM FEW120 BKN200
     FM272200 32005KT P6SM VCTS SCT080CB SCT160
     FM280100 36006KT P6SM VCSH SCT090 BKN200
     FM280500 VRB05KT P6SM SCT100 BKN200=



000
FTUS45 KTWC 270537
TAFOLS
TAF
KOLS 270537Z 2706/2806 VRB05KT P6SM FEW120 BKN200
     FM271000 VRB04KT P6SM SCT200
     FM272100 33006KT P6SM VCTS SCT080CB SCT120 BKN200
     FM280100 VRB06KT P6SM VCSH SCT090 BKN180
     FM280500 VRB05KT P6SM SCT100 SCT200=



000
FTUS45 KTWC 270537
TAFTUS
TAF
KTUS 270537Z 2706/2806 11011KT P6SM SCT110 OVC220
     FM271000 14008KT P6SM FEW120 BKN250
     FM271800 VRB05KT P6SM FEW080 SCT250
     FM272100 33006KT P6SM FEW080 SCT120 BKN250
     FM280400 12006KT P6SM SCT120 SCT250=



000
FTUS45 KTWC 270318 AAA
TAFOLS
TAF AMD
KOLS 270318Z 2703/2724 08009KT P6SM SCT100 OVC180
      TEMPO 2703/2705 -RA BKN100 OVC180
     FM270600 VRB05KT P6SM FEW110 BKN200
     FM272100 33006KT P6SM VCTS SCT080CB SCT120 BKN200=



000
FTUS45 KTWC 270318 AAA
TAFOLS
TAF AMD
KOLS 270318Z 2703/2724 08009KT P6SM SCT100 OVC180
      TEMPO 2703/2705 -RA BKN100 OVC180
     FM270600 VRB05KT P6SM FEW110 BKN200
     FM272100 33006KT P6SM VCTS SCT080CB SCT120 BKN200=



000
FTUS45 KTWC 262339
TAFDUG
TAF
KDUG 262339Z 2700/2724 06011KT P6SM VCTS FEW090CB SCT110
      TEMPO 2700/2702 VRB15G35KT 6SM TSRA BKN090CB OVC120
     FM270200 19008KT P6SM VCSH BKN070 BKN100
     FM270500 09006KT P6SM BKN100 BKN180
     FM271000 VRB05KT P6SM SCT100 BKN200
     FM272200 32005KT P6SM VCSH SCT080 SCT160=



000
FTUS45 KTWC 262339
TAFTUS
TAF
KTUS 262339Z 2700/2724 12012G18KT P6SM VCTS SCT070CB BKN110 OVC180
      TEMPO 2700/2702 VRB15G25KT P6SM -TSRA BKN070CB OVC110
     FM270200 18006KT P6SM VCSH BKN070 BKN110
     FM270400 21005KT P6SM SCT110 BKN180
     FM270900 14007KT P6SM FEW120 SCT200
     FM272100 33006KT P6SM FEW080 SCT120 SCT250=



000
FTUS45 KTWC 262339
TAFOLS
TAF
KOLS 262339Z 2700/2724 28007KT P6SM VCSH SCT060 BKN100 OVC200
      TEMPO 2700/2702 VRB15G25KT TS SCT060CB BKN110
     FM270200 08005KT P6SM SCT100 BKN180
     FM270600 VRB05KT P6SM FEW110 SCT200
     FM272100 33006KT P6SM VCTS SCT080CB SCT120 BKN200=



000
FTUS45 KTWC 262339
TAFDUG
TAF
KDUG 262339Z 2700/2724 06011KT P6SM VCTS FEW090CB SCT110
      TEMPO 2700/2702 VRB15G35KT 6SM TSRA BKN090CB OVC120
     FM270200 19008KT P6SM VCSH BKN070 BKN100
     FM270500 09006KT P6SM BKN100 BKN180
     FM271000 VRB05KT P6SM SCT100 BKN200
     FM272200 32005KT P6SM VCSH SCT080 SCT160=



000
FTUS45 KTWC 262339
TAFOLS
TAF
KOLS 262339Z 2700/2724 28007KT P6SM VCSH SCT060 BKN100 OVC200
      TEMPO 2700/2702 VRB15G25KT TS SCT060CB BKN110
     FM270200 08005KT P6SM SCT100 BKN180
     FM270600 VRB05KT P6SM FEW110 SCT200
     FM272100 33006KT P6SM VCTS SCT080CB SCT120 BKN200=



000
FTUS45 KTWC 262339
TAFOLS
TAF
KOLS 262339Z 2700/2724 28007KT P6SM VCSH SCT060 BKN100 OVC200
      TEMPO 2700/2702 VRB15G25KT TS SCT060CB BKN110
     FM270200 08005KT P6SM SCT100 BKN180
     FM270600 VRB05KT P6SM FEW110 SCT200
     FM272100 33006KT P6SM VCTS SCT080CB SCT120 BKN200=



000
FTUS45 KTWC 262339
TAFTUS
TAF
KTUS 262339Z 2700/2724 12012G18KT P6SM VCTS SCT070CB BKN110 OVC180
      TEMPO 2700/2702 VRB15G25KT P6SM -TSRA BKN070CB OVC110
     FM270200 18006KT P6SM VCSH BKN070 BKN110
     FM270400 21005KT P6SM SCT110 BKN180
     FM270900 14007KT P6SM FEW120 SCT200
     FM272100 33006KT P6SM FEW080 SCT120 SCT250=



000
FTUS45 KTWC 262339
TAFOLS
TAF
KOLS 262339Z 2700/2724 28007KT P6SM VCSH SCT060 BKN100 OVC200
      TEMPO 2700/2702 VRB15G25KT TS SCT060CB BKN110
     FM270200 08005KT P6SM SCT100 BKN180
     FM270600 VRB05KT P6SM FEW110 SCT200
     FM272100 33006KT P6SM VCTS SCT080CB SCT120 BKN200=



000
FTUS45 KTWC 262244 AAB
TAFTUS
TAF AMD
KTUS 262244Z 2623/2718 32006KT P6SM VCSH FEW070 SCT110 BKN180
     FM270000 12012KT P6SM VCTS SCT070CB BKN110 OVC180
      TEMPO 2700/2702 VRB15G25KT P6SM -TSRA BKN070CB OVC110
     FM270200 18006KT P6SM VCSH BKN070 BKN110
     FM270400 21005KT P6SM SCT110 BKN180
     FM270800 14007KT P6SM FEW120 SCT200=



000
FTUS45 KTWC 262244 AAB
TAFTUS
TAF AMD
KTUS 262244Z 2623/2718 32006KT P6SM VCSH FEW070 SCT110 BKN180
     FM270000 12012KT P6SM VCTS SCT070CB BKN110 OVC180
      TEMPO 2700/2702 VRB15G25KT P6SM -TSRA BKN070CB OVC110
     FM270200 18006KT P6SM VCSH BKN070 BKN110
     FM270400 21005KT P6SM SCT110 BKN180
     FM270800 14007KT P6SM FEW120 SCT200=



000
FTUS45 KTWC 262219 AAA
TAFDUG
TAF AMD
KDUG 262219Z 2622/2718 09011G19KT P6SM VCTS FEW090CB SCT110
      TEMPO 2622/2624 VRB15G35KT P6SM TSRA BKN080CB BKN110
     FM270100 19008KT P6SM VCSH BKN060 BKN100
     FM270500 09006KT P6SM BKN100 BKN180
     FM271000 VRB03KT P6SM SCT100 BKN200=



000
FTUS45 KTWC 261740
TAFDUG
TAF
KDUG 261740Z 2618/2718 25006KT P6SM FEW110 SCT200
     FM262000 16006KT P6SM VCTS SCT060CB BKN100
     FM270200 19008KT P6SM VCSH BKN060 BKN100
     FM270500 09006KT P6SM BKN100 BKN180
     FM271000 VRB03KT P6SM SCT100 BKN200=



000
FTUS45 KTWC 261740
TAFOLS
TAF
KOLS 261740Z 2618/2718 VRB03KT P6SM FEW070 SCT110 SCT200
     FM261900 17009KT P6SM VCTS BKN060CB BKN100 OVC180
     FM262300 20007KT P6SM VCSH BKN060 BKN100
     FM270200 08005KT P6SM SCT100 BKN180
     FM270600 VRB03KT P6SM FEW110 SCT200=



000
FTUS45 KTWC 261740
TAFTUS
TAF
KTUS 261740Z 2618/2718 VRB03KT P6SM SCT120 SCT200
     FM261900 23006KT P6SM SCT080 SCT200
     FM262100 30008KT P6SM VCTS SCT070CB BKN110 OVC180
     FM270000 32006KT P6SM VCSH BKN070 BKN110
     FM270200 21005KT P6SM SCT110 BKN180
     FM270700 14007KT P6SM FEW120 SCT200=



000
FTUS45 KTWC 261740
TAFTUS
TAF
KTUS 261740Z 2618/2718 VRB03KT P6SM SCT120 SCT200
     FM261900 23006KT P6SM SCT080 SCT200
     FM262100 30008KT P6SM VCTS SCT070CB BKN110 OVC180
     FM270000 32006KT P6SM VCSH BKN070 BKN110
     FM270200 21005KT P6SM SCT110 BKN180
     FM270700 14007KT P6SM FEW120 SCT200=



000
FTUS45 KTWC 261740
TAFOLS
TAF
KOLS 261740Z 2618/2718 VRB03KT P6SM FEW070 SCT110 SCT200
     FM261900 17009KT P6SM VCTS BKN060CB BKN100 OVC180
     FM262300 20007KT P6SM VCSH BKN060 BKN100
     FM270200 08005KT P6SM SCT100 BKN180
     FM270600 VRB03KT P6SM FEW110 SCT200=



000
FTUS45 KTWC 261740
TAFDUG
TAF
KDUG 261740Z 2618/2718 25006KT P6SM FEW110 SCT200
     FM262000 16006KT P6SM VCTS SCT060CB BKN100
     FM270200 19008KT P6SM VCSH BKN060 BKN100
     FM270500 09006KT P6SM BKN100 BKN180
     FM271000 VRB03KT P6SM SCT100 BKN200=



000
FTUS45 KTWC 261120
TAFOLS
TAF
KOLS 261120Z 2612/2712 VRB03KT P6SM SCT110 SCT250
     FM262100 17009KT P6SM VCTS SCT060CB BKN180
     FM270100 20007KT P6SM VCSH SCT070 BKN120
     FM270500 VRB04KT P6SM SCT090 BKN150=



000
FTUS45 KTWC 261120
TAFOLS
TAF
KOLS 261120Z 2612/2712 VRB03KT P6SM SCT110 SCT250
     FM262100 17009KT P6SM VCTS SCT060CB BKN180
     FM270100 20007KT P6SM VCSH SCT070 BKN120
     FM270500 VRB04KT P6SM SCT090 BKN150=



000
FTUS45 KTWC 261120
TAFOLS
TAF
KOLS 261120Z 2612/2712 VRB03KT P6SM SCT110 SCT250
     FM262100 17009KT P6SM VCTS SCT060CB BKN180
     FM270100 20007KT P6SM VCSH SCT070 BKN120
     FM270500 VRB04KT P6SM SCT090 BKN150=



000
FTUS45 KTWC 261120
TAFTUS
TAF
KTUS 261120Z 2612/2712 14007KT P6SM SCT120 SCT200
     FM261800 VRB05KT P6SM FEW070 SCT250
     FM262200 28008KT P6SM VCTS SCT080CB BKN150
     FM270000 21006KT P6SM VCSH SCT080 BKN150
     FM270400 16005KT P6SM BKN100 BKN200=



000
FTUS45 KTWC 261120
TAFTUS
TAF
KTUS 261120Z 2612/2712 14007KT P6SM SCT120 SCT200
     FM261800 VRB05KT P6SM FEW070 SCT250
     FM262200 28008KT P6SM VCTS SCT080CB BKN150
     FM270000 21006KT P6SM VCSH SCT080 BKN150
     FM270400 16005KT P6SM BKN100 BKN200=



000
FTUS45 KTWC 261120
TAFDUG
TAF
KDUG 261120Z 2612/2712 VRB04KT P6SM SCT110 BKN200
     FM262200 16009KT P6SM VCTS SCT070CB BKN180
     FM270200 19008KT P6SM VCSH SCT070 BKN100 BKN180
     FM270500 09006KT P6SM BKN110 BKN200=



000
FTUS45 KTWC 261120
TAFOLS
TAF
KOLS 261120Z 2612/2712 VRB03KT P6SM SCT110 SCT250
     FM262100 17009KT P6SM VCTS SCT060CB BKN180
     FM270100 20007KT P6SM VCSH SCT070 BKN120
     FM270500 VRB04KT P6SM SCT090 BKN150=



000
FTUS45 KTWC 261120
TAFDUG
TAF
KDUG 261120Z 2612/2712 VRB04KT P6SM SCT110 BKN200
     FM262200 16009KT P6SM VCTS SCT070CB BKN180
     FM270200 19008KT P6SM VCSH SCT070 BKN100 BKN180
     FM270500 09006KT P6SM BKN110 BKN200=



000
FTUS45 KTWC 260525
TAFTUS
TAF
KTUS 260525Z 2606/2706 13006KT P6SM SCT090 BKN200
     FM261000 14007KT P6SM SCT120 SCT200
     FM261800 VRB05KT P6SM FEW070 SCT250
     FM262200 28008KT P6SM VCTS SCT080CB BKN150
     FM270100 21006KT P6SM VCSH SCT080 BKN110 BKN200=



000
FTUS45 KTWC 260525
TAFOLS
TAF
KOLS 260525Z 2606/2706 VRB03KT P6SM VCSH SCT090 BKN200
     FM260800 VRB03KT P6SM SCT110 SCT250
     FM262100 17009KT P6SM VCTS SCT060CB BKN180
     FM270100 20007KT P6SM VCSH SCT070 BKN120
     FM270400 VRB04KT P6SM SCT090 BKN150=



000
FTUS45 KTWC 260525
TAFDUG
TAF
KDUG 260525Z 2606/2706 32006KT P6SM SCT100 BKN180
     FM261000 VRB04KT P6SM SCT110 BKN200
     FM262200 16009KT P6SM VCTS SCT070CB BKN180
     FM270200 19008KT P6SM VCSH SCT070 BKN100 BKN180=



000
FTUS45 KTWC 260525
TAFOLS
TAF
KOLS 260525Z 2606/2706 VRB03KT P6SM VCSH SCT090 BKN200
     FM260800 VRB03KT P6SM SCT110 SCT250
     FM262100 17009KT P6SM VCTS SCT060CB BKN180
     FM270100 20007KT P6SM VCSH SCT070 BKN120
     FM270400 VRB04KT P6SM SCT090 BKN150=



000
FTUS45 KTWC 260525
TAFDUG
TAF
KDUG 260525Z 2606/2706 32006KT P6SM SCT100 BKN180
     FM261000 VRB04KT P6SM SCT110 BKN200
     FM262200 16009KT P6SM VCTS SCT070CB BKN180
     FM270200 19008KT P6SM VCSH SCT070 BKN100 BKN180=



000
FTUS45 KTWC 260525
TAFTUS
TAF
KTUS 260525Z 2606/2706 13006KT P6SM SCT090 BKN200
     FM261000 14007KT P6SM SCT120 SCT200
     FM261800 VRB05KT P6SM FEW070 SCT250
     FM262200 28008KT P6SM VCTS SCT080CB BKN150
     FM270100 21006KT P6SM VCSH SCT080 BKN110 BKN200=



000
FTUS45 KTWC 260525
TAFOLS
TAF
KOLS 260525Z 2606/2706 VRB03KT P6SM VCSH SCT090 BKN200
     FM260800 VRB03KT P6SM SCT110 SCT250
     FM262100 17009KT P6SM VCTS SCT060CB BKN180
     FM270100 20007KT P6SM VCSH SCT070 BKN120
     FM270400 VRB04KT P6SM SCT090 BKN150=



000
FTUS45 KTWC 260525
TAFOLS
TAF
KOLS 260525Z 2606/2706 VRB03KT P6SM VCSH SCT090 BKN200
     FM260800 VRB03KT P6SM SCT110 SCT250
     FM262100 17009KT P6SM VCTS SCT060CB BKN180
     FM270100 20007KT P6SM VCSH SCT070 BKN120
     FM270400 VRB04KT P6SM SCT090 BKN150=



    US Dept of Commerce
    National Oceanic and Atmospheric Administration
    National Weather Service
    1325 East West Highway
    Silver Spring, MD 20910
    Page Author: NWS Internet Services Team
Disclaimer
Information Quality
Credits
Glossary
Privacy Policy
Freedom of Information Act (FOIA)
About Us
Career Opportunities